sensor_id;sensor_type;location;lat;lon;timestamp;P1;durP1;ratioP1;P2;durP2;ratioP2
69305;SDS011;56427;51.580;4.656;2023-07-20T00:00:47;7.40;;;2.90;;
69305;SDS011;56427;51.580;4.656;2023-07-20T00:03:13;10.67;;;2.80;;
69305;SDS011;56427;51.580;4.656;2023-07-20T00:05:43;9.32;;;3.40;;
69305;SDS011;56427;51.580;4.656;2023-07-20T00:08:09;9.48;;;3.10;;
69305;SDS011;56427;51.580;4.656;2023-07-20T00:10:35;7.13;;;3.10;;
69305;SDS011;56427;51.580;4.656;2023-07-20T00:13:00;6.20;;;3.00;;
69305;SDS011;56427;51.580;4.656;2023-07-20T00:15:25;8.10;;;3.03;;
69305;SDS011;56427;51.580;4.656;2023-07-20T00:17:51;7.27;;;3.13;;
69305;SDS011;56427;51.580;4.656;2023-07-20T00:20:16;7.00;;;3.37;;
69305;SDS011;56427;51.580;4.656;2023-07-20T00:22:42;6.75;;;2.80;;
69305;SDS011;56427;51.580;4.656;2023-07-20T00:25:08;9.10;;;3.17;;
69305;SDS011;56427;51.580;4.656;2023-07-20T00:27:36;7.93;;;3.35;;
69305;SDS011;56427;51.580;4.656;2023-07-20T00:30:02;9.10;;;3.03;;
69305;SDS011;56427;51.580;4.656;2023-07-20T00:32:27;7.47;;;2.97;;
69305;SDS011;56427;51.580;4.656;2023-07-20T00:34:53;9.90;;;3.90;;
69305;SDS011;56427;51.580;4.656;2023-07-20T00:37:18;9.07;;;3.67;;
69305;SDS011;56427;51.580;4.656;2023-07-20T00:39:43;7.70;;;3.40;;
69305;SDS011;56427;51.580;4.656;2023-07-20T00:42:09;10.27;;;4.20;;
69305;SDS011;56427;51.580;4.656;2023-07-20T00:44:34;8.43;;;4.25;;
69305;SDS011;56427;51.580;4.656;2023-07-20T00:46:59;7.33;;;3.53;;
69305;SDS011;56427;51.580;4.656;2023-07-20T00:49:25;9.40;;;4.77;;
69305;SDS011;56427;51.580;4.656;2023-07-20T00:51:50;8.23;;;4.47;;
69305;SDS011;56427;51.580;4.656;2023-07-20T00:54:16;9.98;;;4.20;;
69305;SDS011;56427;51.580;4.656;2023-07-20T00:56:42;8.37;;;5.20;;
69305;SDS011;56427;51.580;4.656;2023-07-20T00:59:08;9.15;;;5.00;;
69305;SDS011;56427;51.580;4.656;2023-07-20T01:01:34;13.73;;;5.15;;
69305;SDS011;56427;51.580;4.656;2023-07-20T01:03:59;10.47;;;5.27;;
69305;SDS011;56427;51.580;4.656;2023-07-20T01:06:43;13.87;;;5.70;;
69305;SDS011;56427;51.580;4.656;2023-07-20T01:09:26;14.30;;;5.20;;
69305;SDS011;56427;51.580;4.656;2023-07-20T01:14:34;11.43;;;5.80;;
69305;SDS011;56427;51.580;4.656;2023-07-20T01:16:59;8.60;;;5.07;;
69305;SDS011;56427;51.580;4.656;2023-07-20T01:19:25;15.33;;;6.13;;
69305;SDS011;56427;51.580;4.656;2023-07-20T01:21:55;12.02;;;5.90;;
69305;SDS011;56427;51.580;4.656;2023-07-20T01:24:57;10.25;;;5.75;;
69305;SDS011;56427;51.580;4.656;2023-07-20T01:30:46;9.38;;;6.18;;
69305;SDS011;56427;51.580;4.656;2023-07-20T01:33:20;9.63;;;6.30;;
69305;SDS011;56427;51.580;4.656;2023-07-20T01:35:58;9.32;;;6.22;;
69305;SDS011;56427;51.580;4.656;2023-07-20T01:38:28;14.48;;;6.93;;
69305;SDS011;56427;51.580;4.656;2023-07-20T01:40:53;15.97;;;7.53;;
69305;SDS011;56427;51.580;4.656;2023-07-20T01:43:20;12.48;;;7.25;;
69305;SDS011;56427;51.580;4.656;2023-07-20T01:45:46;12.55;;;7.20;;
69305;SDS011;56427;51.580;4.656;2023-07-20T01:48:12;11.27;;;6.87;;
69305;SDS011;56427;51.580;4.656;2023-07-20T01:50:37;11.20;;;6.73;;
69305;SDS011;56427;51.580;4.656;2023-07-20T01:53:03;10.68;;;6.75;;
69305;SDS011;56427;51.580;4.656;2023-07-20T01:55:28;11.23;;;6.17;;
69305;SDS011;56427;51.580;4.656;2023-07-20T01:57:54;13.70;;;7.00;;
69305;SDS011;56427;51.580;4.656;2023-07-20T02:00:20;12.60;;;7.47;;
69305;SDS011;56427;51.580;4.656;2023-07-20T02:02:49;12.65;;;7.13;;
69305;SDS011;56427;51.580;4.656;2023-07-20T02:05:14;12.15;;;6.53;;
69305;SDS011;56427;51.580;4.656;2023-07-20T02:07:40;13.07;;;7.70;;
69305;SDS011;56427;51.580;4.656;2023-07-20T02:10:05;11.70;;;6.97;;
69305;SDS011;56427;51.580;4.656;2023-07-20T02:12:31;11.55;;;7.43;;
69305;SDS011;56427;51.580;4.656;2023-07-20T02:14:56;11.13;;;7.27;;
69305;SDS011;56427;51.580;4.656;2023-07-20T02:17:22;13.40;;;7.97;;
69305;SDS011;56427;51.580;4.656;2023-07-20T02:19:50;11.43;;;8.07;;
69305;SDS011;56427;51.580;4.656;2023-07-20T02:22:16;17.83;;;7.85;;
69305;SDS011;56427;51.580;4.656;2023-07-20T02:24:41;13.63;;;7.20;;
69305;SDS011;56427;51.580;4.656;2023-07-20T02:27:07;16.27;;;8.00;;
69305;SDS011;56427;51.580;4.656;2023-07-20T02:29:32;15.33;;;7.67;;
69305;SDS011;56427;51.580;4.656;2023-07-20T02:31:57;12.23;;;8.03;;
69305;SDS011;56427;51.580;4.656;2023-07-20T02:34:23;14.63;;;8.87;;
69305;SDS011;56427;51.580;4.656;2023-07-20T02:36:48;12.53;;;8.17;;
69305;SDS011;56427;51.580;4.656;2023-07-20T02:39:14;15.18;;;8.00;;
69305;SDS011;56427;51.580;4.656;2023-07-20T02:41:39;12.70;;;7.90;;
69305;SDS011;56427;51.580;4.656;2023-07-20T02:44:06;11.35;;;7.63;;
69305;SDS011;56427;51.580;4.656;2023-07-20T02:46:32;10.57;;;7.40;;
69305;SDS011;56427;51.580;4.656;2023-07-20T02:48:57;12.35;;;8.60;;
69305;SDS011;56427;51.580;4.656;2023-07-20T02:51:22;15.00;;;8.80;;
69305;SDS011;56427;51.580;4.656;2023-07-20T02:53:48;14.13;;;9.23;;
69305;SDS011;56427;51.580;4.656;2023-07-20T02:56:13;14.87;;;9.80;;
69305;SDS011;56427;51.580;4.656;2023-07-20T02:58:41;14.18;;;9.55;;
69305;SDS011;56427;51.580;4.656;2023-07-20T03:01:10;15.35;;;9.80;;
69305;SDS011;56427;51.580;4.656;2023-07-20T03:03:37;12.20;;;8.30;;
69305;SDS011;56427;51.580;4.656;2023-07-20T03:06:06;11.63;;;8.83;;
69305;SDS011;56427;51.580;4.656;2023-07-20T03:08:34;15.40;;;9.40;;
69305;SDS011;56427;51.580;4.656;2023-07-20T03:11:00;14.25;;;8.77;;
69305;SDS011;56427;51.580;4.656;2023-07-20T03:13:26;14.23;;;8.13;;
69305;SDS011;56427;51.580;4.656;2023-07-20T03:15:52;12.77;;;9.27;;
69305;SDS011;56427;51.580;4.656;2023-07-20T03:18:18;11.57;;;7.55;;
69305;SDS011;56427;51.580;4.656;2023-07-20T03:20:43;13.97;;;8.50;;
69305;SDS011;56427;51.580;4.656;2023-07-20T03:23:08;10.37;;;7.37;;
69305;SDS011;56427;51.580;4.656;2023-07-20T03:25:34;12.43;;;7.20;;
69305;SDS011;56427;51.580;4.656;2023-07-20T03:27:59;9.67;;;6.40;;
69305;SDS011;56427;51.580;4.656;2023-07-20T03:30:24;8.77;;;5.40;;
69305;SDS011;56427;51.580;4.656;2023-07-20T03:32:50;8.65;;;6.15;;
69305;SDS011;56427;51.580;4.656;2023-07-20T03:35:16;10.30;;;5.90;;
69305;SDS011;56427;51.580;4.656;2023-07-20T03:37:41;9.40;;;5.93;;
69305;SDS011;56427;51.580;4.656;2023-07-20T03:40:07;8.60;;;5.97;;
69305;SDS011;56427;51.580;4.656;2023-07-20T03:42:33;7.75;;;5.85;;
69305;SDS011;56427;51.580;4.656;2023-07-20T03:44:58;8.45;;;5.68;;
69305;SDS011;56427;51.580;4.656;2023-07-20T03:47:24;8.40;;;6.40;;
69305;SDS011;56427;51.580;4.656;2023-07-20T03:49:49;8.50;;;5.90;;
69305;SDS011;56427;51.580;4.656;2023-07-20T03:52:14;13.33;;;6.90;;
69305;SDS011;56427;51.580;4.656;2023-07-20T03:54:40;10.50;;;6.73;;
69305;SDS011;56427;51.580;4.656;2023-07-20T03:57:05;10.33;;;6.43;;
69305;SDS011;56427;51.580;4.656;2023-07-20T03:59:31;10.57;;;7.22;;
69305;SDS011;56427;51.580;4.656;2023-07-20T04:01:56;8.57;;;6.37;;
69305;SDS011;56427;51.580;4.656;2023-07-20T04:04:21;10.33;;;6.97;;
69305;SDS011;56427;51.580;4.656;2023-07-20T04:06:47;10.07;;;6.43;;
69305;SDS011;56427;51.580;4.656;2023-07-20T04:09:12;9.43;;;6.80;;
69305;SDS011;56427;51.580;4.656;2023-07-20T04:11:38;9.48;;;6.22;;
69305;SDS011;56427;51.580;4.656;2023-07-20T04:14:04;8.00;;;5.93;;
69305;SDS011;56427;51.580;4.656;2023-07-20T04:16:29;10.10;;;6.32;;
69305;SDS011;56427;51.580;4.656;2023-07-20T04:18:55;9.07;;;5.43;;
69305;SDS011;56427;51.580;4.656;2023-07-20T04:21:22;8.30;;;5.45;;
69305;SDS011;56427;51.580;4.656;2023-07-20T04:23:47;11.40;;;6.38;;
69305;SDS011;56427;51.580;4.656;2023-07-20T04:26:13;6.73;;;5.10;;
69305;SDS011;56427;51.580;4.656;2023-07-20T04:28:40;7.88;;;5.45;;
69305;SDS011;56427;51.580;4.656;2023-07-20T04:31:14;6.63;;;4.63;;
69305;SDS011;56427;51.580;4.656;2023-07-20T04:33:40;9.35;;;7.68;;
69305;SDS011;56427;51.580;4.656;2023-07-20T04:36:06;6.22;;;4.28;;
69305;SDS011;56427;51.580;4.656;2023-07-20T04:38:32;4.63;;;3.70;;
69305;SDS011;56427;51.580;4.656;2023-07-20T04:40:58;5.28;;;3.80;;
69305;SDS011;56427;51.580;4.656;2023-07-20T04:43:23;4.93;;;3.70;;
69305;SDS011;56427;51.580;4.656;2023-07-20T04:45:49;5.82;;;3.28;;
69305;SDS011;56427;51.580;4.656;2023-07-20T04:48:16;5.60;;;3.43;;
69305;SDS011;56427;51.580;4.656;2023-07-20T04:50:42;5.80;;;3.63;;
69305;SDS011;56427;51.580;4.656;2023-07-20T04:53:10;8.48;;;4.60;;
69305;SDS011;56427;51.580;4.656;2023-07-20T04:55:36;5.57;;;3.80;;
69305;SDS011;56427;51.580;4.656;2023-07-20T04:58:02;6.43;;;3.60;;
69305;SDS011;56427;51.580;4.656;2023-07-20T05:00:28;6.83;;;3.83;;
69305;SDS011;56427;51.580;4.656;2023-07-20T05:02:55;5.60;;;4.13;;
69305;SDS011;56427;51.580;4.656;2023-07-20T05:05:22;7.57;;;4.68;;
69305;SDS011;56427;51.580;4.656;2023-07-20T05:07:47;8.15;;;4.20;;
69305;SDS011;56427;51.580;4.656;2023-07-20T05:10:13;5.67;;;3.70;;
69305;SDS011;56427;51.580;4.656;2023-07-20T05:12:38;6.00;;;4.07;;
69305;SDS011;56427;51.580;4.656;2023-07-20T05:15:04;6.20;;;4.53;;
69305;SDS011;56427;51.580;4.656;2023-07-20T05:17:29;9.50;;;5.20;;
69305;SDS011;56427;51.580;4.656;2023-07-20T05:19:55;7.50;;;4.65;;
69305;SDS011;56427;51.580;4.656;2023-07-20T05:22:20;7.77;;;5.13;;
69305;SDS011;56427;51.580;4.656;2023-07-20T05:24:46;6.93;;;4.73;;
69305;SDS011;56427;51.580;4.656;2023-07-20T05:27:11;8.03;;;5.10;;
69305;SDS011;56427;51.580;4.656;2023-07-20T05:29:37;5.72;;;4.15;;
69305;SDS011;56427;51.580;4.656;2023-07-20T05:32:02;9.00;;;5.70;;
69305;SDS011;56427;51.580;4.656;2023-07-20T05:34:28;8.07;;;5.47;;
69305;SDS011;56427;51.580;4.656;2023-07-20T05:36:53;9.23;;;6.27;;
69305;SDS011;56427;51.580;4.656;2023-07-20T05:39:19;8.80;;;6.22;;
69305;SDS011;56427;51.580;4.656;2023-07-20T05:41:45;10.70;;;6.30;;
69305;SDS011;56427;51.580;4.656;2023-07-20T05:44:10;11.20;;;6.37;;
69305;SDS011;56427;51.580;4.656;2023-07-20T05:46:35;10.20;;;6.37;;
69305;SDS011;56427;51.580;4.656;2023-07-20T05:49:01;10.27;;;5.37;;
69305;SDS011;56427;51.580;4.656;2023-07-20T05:51:26;10.05;;;5.47;;
69305;SDS011;56427;51.580;4.656;2023-07-20T05:53:52;9.40;;;5.60;;
69305;SDS011;56427;51.580;4.656;2023-07-20T05:56:17;6.93;;;4.87;;
69305;SDS011;56427;51.580;4.656;2023-07-20T05:58:43;9.77;;;5.07;;
69305;SDS011;56427;51.580;4.656;2023-07-20T06:01:08;5.00;;;4.23;;
69305;SDS011;56427;51.580;4.656;2023-07-20T06:03:34;8.93;;;4.70;;
69305;SDS011;56427;51.580;4.656;2023-07-20T06:06:02;6.30;;;4.40;;
69305;SDS011;56427;51.580;4.656;2023-07-20T06:08:29;5.72;;;3.75;;
69305;SDS011;56427;51.580;4.656;2023-07-20T06:10:55;7.32;;;4.38;;
69305;SDS011;56427;51.580;4.656;2023-07-20T06:13:20;7.23;;;3.70;;
69305;SDS011;56427;51.580;4.656;2023-07-20T06:15:46;6.83;;;3.77;;
69305;SDS011;56427;51.580;4.656;2023-07-20T06:18:12;5.03;;;3.03;;
69305;SDS011;56427;51.580;4.656;2023-07-20T06:20:38;4.05;;;2.92;;
69305;SDS011;56427;51.580;4.656;2023-07-20T06:23:03;4.57;;;2.97;;
69305;SDS011;56427;51.580;4.656;2023-07-20T06:25:28;5.03;;;2.90;;
69305;SDS011;56427;51.580;4.656;2023-07-20T06:27:54;4.30;;;2.80;;
69305;SDS011;56427;51.580;4.656;2023-07-20T06:30:21;6.40;;;3.20;;
69305;SDS011;56427;51.580;4.656;2023-07-20T06:32:46;5.40;;;3.67;;
69305;SDS011;56427;51.580;4.656;2023-07-20T06:35:12;4.37;;;2.90;;
69305;SDS011;56427;51.580;4.656;2023-07-20T06:37:38;4.38;;;2.90;;
69305;SDS011;56427;51.580;4.656;2023-07-20T06:40:04;3.77;;;2.33;;
69305;SDS011;56427;51.580;4.656;2023-07-20T06:42:30;4.50;;;2.33;;
69305;SDS011;56427;51.580;4.656;2023-07-20T06:44:56;4.82;;;2.88;;
69305;SDS011;56427;51.580;4.656;2023-07-20T06:47:22;4.10;;;2.85;;
69305;SDS011;56427;51.580;4.656;2023-07-20T06:49:47;4.87;;;3.03;;
69305;SDS011;56427;51.580;4.656;2023-07-20T06:52:13;3.37;;;2.57;;
69305;SDS011;56427;51.580;4.656;2023-07-20T06:54:38;3.95;;;2.00;;
69305;SDS011;56427;51.580;4.656;2023-07-20T06:57:04;3.60;;;2.00;;
69305;SDS011;56427;51.580;4.656;2023-07-20T06:59:30;4.22;;;2.70;;
69305;SDS011;56427;51.580;4.656;2023-07-20T07:01:55;6.73;;;3.80;;
69305;SDS011;56427;51.580;4.656;2023-07-20T07:04:21;6.17;;;3.97;;
69305;SDS011;56427;51.580;4.656;2023-07-20T07:06:46;5.28;;;4.07;;
69305;SDS011;56427;51.580;4.656;2023-07-20T07:09:12;5.13;;;3.63;;
69305;SDS011;56427;51.580;4.656;2023-07-20T07:11:37;5.30;;;3.40;;
69305;SDS011;56427;51.580;4.656;2023-07-20T07:14:02;5.37;;;4.17;;
69305;SDS011;56427;51.580;4.656;2023-07-20T07:16:28;3.77;;;2.90;;
69305;SDS011;56427;51.580;4.656;2023-07-20T07:18:53;4.00;;;2.20;;
69305;SDS011;56427;51.580;4.656;2023-07-20T07:21:19;3.37;;;2.13;;
69305;SDS011;56427;51.580;4.656;2023-07-20T07:23:45;3.00;;;1.90;;
69305;SDS011;56427;51.580;4.656;2023-07-20T07:26:11;3.08;;;1.60;;
69305;SDS011;56427;51.580;4.656;2023-07-20T07:28:36;4.30;;;1.40;;
69305;SDS011;56427;51.580;4.656;2023-07-20T07:31:05;3.40;;;1.40;;
69305;SDS011;56427;51.580;4.656;2023-07-20T07:33:31;4.15;;;1.50;;
69305;SDS011;56427;51.580;4.656;2023-07-20T07:35:57;3.08;;;1.67;;
69305;SDS011;56427;51.580;4.656;2023-07-20T07:38:22;2.97;;;1.47;;
69305;SDS011;56427;51.580;4.656;2023-07-20T07:40:48;2.67;;;1.60;;
69305;SDS011;56427;51.580;4.656;2023-07-20T07:43:13;3.53;;;1.40;;
69305;SDS011;56427;51.580;4.656;2023-07-20T07:45:39;2.60;;;1.53;;
69305;SDS011;56427;51.580;4.656;2023-07-20T07:48:05;2.90;;;1.77;;
69305;SDS011;56427;51.580;4.656;2023-07-20T07:50:31;4.78;;;1.90;;
69305;SDS011;56427;51.580;4.656;2023-07-20T07:52:58;3.83;;;1.50;;
69305;SDS011;56427;51.580;4.656;2023-07-20T07:55:24;3.10;;;1.80;;
69305;SDS011;56427;51.580;4.656;2023-07-20T07:57:51;3.97;;;1.40;;
69305;SDS011;56427;51.580;4.656;2023-07-20T08:00:17;2.65;;;1.60;;
69305;SDS011;56427;51.580;4.656;2023-07-20T08:02:44;3.88;;;1.65;;
69305;SDS011;56427;51.580;4.656;2023-07-20T08:05:12;3.20;;;1.50;;
69305;SDS011;56427;51.580;4.656;2023-07-20T08:07:37;5.07;;;1.47;;
69305;SDS011;56427;51.580;4.656;2023-07-20T08:10:03;2.47;;;1.23;;
69305;SDS011;56427;51.580;4.656;2023-07-20T08:12:29;3.60;;;1.20;;
69305;SDS011;56427;51.580;4.656;2023-07-20T08:14:54;2.70;;;1.40;;
69305;SDS011;56427;51.580;4.656;2023-07-20T08:17:20;2.65;;;1.42;;
69305;SDS011;56427;51.580;4.656;2023-07-20T08:19:45;2.43;;;1.47;;
69305;SDS011;56427;51.580;4.656;2023-07-20T08:22:11;2.78;;;1.65;;
69305;SDS011;56427;51.580;4.656;2023-07-20T08:24:40;5.90;;;2.03;;
69305;SDS011;56427;51.580;4.656;2023-07-20T08:27:06;3.17;;;2.00;;
69305;SDS011;56427;51.580;4.656;2023-07-20T08:29:31;2.90;;;1.58;;
69305;SDS011;56427;51.580;4.656;2023-07-20T08:31:57;4.67;;;1.80;;
69305;SDS011;56427;51.580;4.656;2023-07-20T08:34:22;3.23;;;1.90;;
69305;SDS011;56427;51.580;4.656;2023-07-20T08:36:48;2.77;;;1.60;;
69305;SDS011;56427;51.580;4.656;2023-07-20T08:39:13;3.00;;;1.55;;
69305;SDS011;56427;51.580;4.656;2023-07-20T08:41:38;4.27;;;1.60;;
69305;SDS011;56427;51.580;4.656;2023-07-20T08:44:05;3.25;;;1.30;;
69305;SDS011;56427;51.580;4.656;2023-07-20T08:46:30;4.73;;;1.40;;
69305;SDS011;56427;51.580;4.656;2023-07-20T08:48:56;2.93;;;1.80;;
69305;SDS011;56427;51.580;4.656;2023-07-20T08:51:23;4.32;;;1.50;;
69305;SDS011;56427;51.580;4.656;2023-07-20T08:53:49;4.05;;;1.88;;
69305;SDS011;56427;51.580;4.656;2023-07-20T08:56:16;3.10;;;1.67;;
69305;SDS011;56427;51.580;4.656;2023-07-20T08:58:44;4.10;;;1.92;;
69305;SDS011;56427;51.580;4.656;2023-07-20T09:01:10;3.70;;;1.60;;
69305;SDS011;56427;51.580;4.656;2023-07-20T09:03:36;2.35;;;1.33;;
69305;SDS011;56427;51.580;4.656;2023-07-20T09:06:04;3.92;;;1.70;;
69305;SDS011;56427;51.580;4.656;2023-07-20T09:08:30;2.57;;;1.10;;
69305;SDS011;56427;51.580;4.656;2023-07-20T09:10:56;2.90;;;1.67;;
69305;SDS011;56427;51.580;4.656;2023-07-20T09:13:22;4.00;;;2.95;;
69305;SDS011;56427;51.580;4.656;2023-07-20T09:15:53;2.40;;;1.47;;
69305;SDS011;56427;51.580;4.656;2023-07-20T09:18:23;2.50;;;1.30;;
69305;SDS011;56427;51.580;4.656;2023-07-20T09:20:50;2.50;;;1.63;;
69305;SDS011;56427;51.580;4.656;2023-07-20T09:23:15;2.63;;;1.50;;
69305;SDS011;56427;51.580;4.656;2023-07-20T09:25:41;2.42;;;1.50;;
69305;SDS011;56427;51.580;4.656;2023-07-20T09:28:07;2.33;;;1.40;;
69305;SDS011;56427;51.580;4.656;2023-07-20T09:30:32;2.50;;;1.30;;
69305;SDS011;56427;51.580;4.656;2023-07-20T09:32:58;2.55;;;1.50;;
69305;SDS011;56427;51.580;4.656;2023-07-20T09:35:23;2.20;;;1.30;;
69305;SDS011;56427;51.580;4.656;2023-07-20T09:37:50;2.88;;;1.70;;
69305;SDS011;56427;51.580;4.656;2023-07-20T09:40:37;6.55;;;1.40;;
69305;SDS011;56427;51.580;4.656;2023-07-20T09:43:09;4.53;;;1.40;;
69305;SDS011;56427;51.580;4.656;2023-07-20T09:45:35;3.53;;;1.10;;
69305;SDS011;56427;51.580;4.656;2023-07-20T09:48:07;5.55;;;1.50;;
69305;SDS011;56427;51.580;4.656;2023-07-20T09:50:34;2.60;;;1.45;;
69305;SDS011;56427;51.580;4.656;2023-07-20T09:53:04;3.13;;;2.00;;
69305;SDS011;56427;51.580;4.656;2023-07-20T09:55:30;3.17;;;1.67;;
69305;SDS011;56427;51.580;4.656;2023-07-20T09:57:58;3.40;;;1.70;;
69305;SDS011;56427;51.580;4.656;2023-07-20T10:00:24;3.72;;;1.70;;
69305;SDS011;56427;51.580;4.656;2023-07-20T10:02:49;2.83;;;1.50;;
69305;SDS011;56427;51.580;4.656;2023-07-20T10:05:17;3.63;;;1.48;;
69305;SDS011;56427;51.580;4.656;2023-07-20T10:07:52;2.60;;;1.35;;
69305;SDS011;56427;51.580;4.656;2023-07-20T10:10:18;3.03;;;1.63;;
69305;SDS011;56427;51.580;4.656;2023-07-20T10:12:45;2.43;;;1.33;;
69305;SDS011;56427;51.580;4.656;2023-07-20T10:15:18;2.83;;;1.45;;
69305;SDS011;56427;51.580;4.656;2023-07-20T10:17:48;3.03;;;1.27;;
69305;SDS011;56427;51.580;4.656;2023-07-20T10:20:21;2.83;;;1.27;;
69305;SDS011;56427;51.580;4.656;2023-07-20T10:22:47;2.53;;;1.50;;
69305;SDS011;56427;51.580;4.656;2023-07-20T10:25:14;2.80;;;1.70;;
69305;SDS011;56427;51.580;4.656;2023-07-20T10:27:41;4.43;;;1.67;;
69305;SDS011;56427;51.580;4.656;2023-07-20T10:30:07;3.10;;;2.07;;
69305;SDS011;56427;51.580;4.656;2023-07-20T10:32:33;3.28;;;1.85;;
69305;SDS011;56427;51.580;4.656;2023-07-20T10:34:58;4.97;;;1.60;;
69305;SDS011;56427;51.580;4.656;2023-07-20T10:42:56;3.53;;;1.92;;
69305;SDS011;56427;51.580;4.656;2023-07-20T10:48:25;3.35;;;2.17;;
69305;SDS011;56427;51.580;4.656;2023-07-20T10:53:39;5.10;;;1.97;;
69305;SDS011;56427;51.580;4.656;2023-07-20T10:56:06;3.08;;;2.10;;
69305;SDS011;56427;51.580;4.656;2023-07-20T10:58:45;3.15;;;2.10;;
69305;SDS011;56427;51.580;4.656;2023-07-20T11:01:14;4.93;;;1.77;;
69305;SDS011;56427;51.580;4.656;2023-07-20T11:03:43;4.50;;;2.00;;
69305;SDS011;56427;51.580;4.656;2023-07-20T11:08:56;3.15;;;1.88;;
69305;SDS011;56427;51.580;4.656;2023-07-20T11:11:32;3.85;;;2.20;;
69305;SDS011;56427;51.580;4.656;2023-07-20T11:19:03;4.07;;;1.45;;
69305;SDS011;56427;51.580;4.656;2023-07-20T11:21:32;2.38;;;1.40;;
69305;SDS011;56427;51.580;4.656;2023-07-20T11:24:05;2.50;;;1.60;;
69305;SDS011;56427;51.580;4.656;2023-07-20T11:26:39;3.90;;;1.97;;
69305;SDS011;56427;51.580;4.656;2023-07-20T11:29:04;2.97;;;1.27;;
69305;SDS011;56427;51.580;4.656;2023-07-20T11:31:30;2.40;;;1.60;;
69305;SDS011;56427;51.580;4.656;2023-07-20T11:33:55;4.60;;;1.80;;
69305;SDS011;56427;51.580;4.656;2023-07-20T11:36:20;3.30;;;2.30;;
69305;SDS011;56427;51.580;4.656;2023-07-20T11:38:46;3.67;;;1.90;;
69305;SDS011;56427;51.580;4.656;2023-07-20T11:41:12;3.00;;;2.20;;
69305;SDS011;56427;51.580;4.656;2023-07-20T11:43:38;3.60;;;1.50;;
69305;SDS011;56427;51.580;4.656;2023-07-20T11:46:04;2.70;;;1.30;;
69305;SDS011;56427;51.580;4.656;2023-07-20T11:48:30;4.03;;;1.20;;
69305;SDS011;56427;51.580;4.656;2023-07-20T11:50:55;4.03;;;1.63;;
69305;SDS011;56427;51.580;4.656;2023-07-20T11:53:21;3.00;;;1.58;;
69305;SDS011;56427;51.580;4.656;2023-07-20T11:55:47;3.83;;;1.73;;
69305;SDS011;56427;51.580;4.656;2023-07-20T11:58:12;3.20;;;1.40;;
69305;SDS011;56427;51.580;4.656;2023-07-20T12:00:41;2.95;;;1.60;;
69305;SDS011;56427;51.580;4.656;2023-07-20T12:03:09;2.60;;;1.42;;
69305;SDS011;56427;51.580;4.656;2023-07-20T12:05:37;3.08;;;1.33;;
69305;SDS011;56427;51.580;4.656;2023-07-20T12:08:05;2.55;;;1.23;;
69305;SDS011;56427;51.580;4.656;2023-07-20T12:10:30;3.07;;;1.57;;
69305;SDS011;56427;51.580;4.656;2023-07-20T12:13:02;3.67;;;1.20;;
69305;SDS011;56427;51.580;4.656;2023-07-20T12:15:28;4.22;;;1.40;;
69305;SDS011;56427;51.580;4.656;2023-07-20T12:18:00;5.72;;;1.58;;
69305;SDS011;56427;51.580;4.656;2023-07-20T12:20:33;2.53;;;1.30;;
69305;SDS011;56427;51.580;4.656;2023-07-20T12:23:11;3.67;;;1.40;;
69305;SDS011;56427;51.580;4.656;2023-07-20T12:25:40;2.60;;;1.20;;
69305;SDS011;56427;51.580;4.656;2023-07-20T12:28:12;2.97;;;1.30;;
69305;SDS011;56427;51.580;4.656;2023-07-20T12:30:42;3.40;;;1.58;;
69305;SDS011;56427;51.580;4.656;2023-07-20T12:33:12;2.78;;;1.20;;
69305;SDS011;56427;51.580;4.656;2023-07-20T12:35:42;2.30;;;1.20;;
69305;SDS011;56427;51.580;4.656;2023-07-20T12:38:11;3.30;;;1.13;;
69305;SDS011;56427;51.580;4.656;2023-07-20T12:40:36;3.45;;;1.40;;
69305;SDS011;56427;51.580;4.656;2023-07-20T12:43:02;3.60;;;1.50;;
69305;SDS011;56427;51.580;4.656;2023-07-20T12:45:27;3.13;;;1.40;;
69305;SDS011;56427;51.580;4.656;2023-07-20T12:47:53;2.92;;;1.40;;
69305;SDS011;56427;51.580;4.656;2023-07-20T12:50:18;6.10;;;1.50;;
69305;SDS011;56427;51.580;4.656;2023-07-20T12:52:44;4.40;;;1.20;;
69305;SDS011;56427;51.580;4.656;2023-07-20T12:55:09;4.38;;;1.80;;
69305;SDS011;56427;51.580;4.656;2023-07-20T12:57:35;3.10;;;1.90;;
69305;SDS011;56427;51.580;4.656;2023-07-20T13:00:02;3.50;;;1.80;;
69305;SDS011;56427;51.580;4.656;2023-07-20T13:02:30;2.60;;;1.40;;
69305;SDS011;56427;51.580;4.656;2023-07-20T13:04:57;2.70;;;1.30;;
69305;SDS011;56427;51.580;4.656;2023-07-20T13:07:29;3.23;;;1.37;;
69305;SDS011;56427;51.580;4.656;2023-07-20T13:09:56;4.00;;;1.40;;
69305;SDS011;56427;51.580;4.656;2023-07-20T13:12:22;2.80;;;1.33;;
69305;SDS011;56427;51.580;4.656;2023-07-20T13:14:48;3.57;;;1.20;;
69305;SDS011;56427;51.580;4.656;2023-07-20T13:17:13;3.83;;;1.30;;
69305;SDS011;56427;51.580;4.656;2023-07-20T13:19:39;2.53;;;1.10;;
69305;SDS011;56427;51.580;4.656;2023-07-20T13:22:04;3.42;;;1.45;;
69305;SDS011;56427;51.580;4.656;2023-07-20T13:24:29;2.10;;;1.00;;
69305;SDS011;56427;51.580;4.656;2023-07-20T13:26:55;3.13;;;1.00;;
69305;SDS011;56427;51.580;4.656;2023-07-20T13:29:20;5.57;;;1.40;;
69305;SDS011;56427;51.580;4.656;2023-07-20T13:31:46;3.50;;;1.50;;
69305;SDS011;56427;51.580;4.656;2023-07-20T13:34:11;3.17;;;1.30;;
69305;SDS011;56427;51.580;4.656;2023-07-20T13:36:36;3.30;;;1.23;;
69305;SDS011;56427;51.580;4.656;2023-07-20T13:39:02;3.50;;;1.50;;
69305;SDS011;56427;51.580;4.656;2023-07-20T13:41:29;4.15;;;1.50;;
69305;SDS011;56427;51.580;4.656;2023-07-20T13:43:57;3.55;;;1.30;;
69305;SDS011;56427;51.580;4.656;2023-07-20T13:46:22;2.70;;;1.40;;
69305;SDS011;56427;51.580;4.656;2023-07-20T13:48:48;4.20;;;1.45;;
69305;SDS011;56427;51.580;4.656;2023-07-20T13:51:13;4.50;;;1.33;;
69305;SDS011;56427;51.580;4.656;2023-07-20T13:53:39;3.83;;;1.90;;
69305;SDS011;56427;51.580;4.656;2023-07-20T13:56:05;3.00;;;1.40;;
69305;SDS011;56427;51.580;4.656;2023-07-20T13:58:32;3.58;;;1.35;;
69305;SDS011;56427;51.580;4.656;2023-07-20T14:00:57;4.90;;;1.58;;
69305;SDS011;56427;51.580;4.656;2023-07-20T14:03:23;7.37;;;1.50;;
69305;SDS011;56427;51.580;4.656;2023-07-20T14:05:49;2.73;;;1.20;;
69305;SDS011;56427;51.580;4.656;2023-07-20T14:08:15;3.10;;;1.30;;
69305;SDS011;56427;51.580;4.656;2023-07-20T14:10:40;4.17;;;1.20;;
69305;SDS011;56427;51.580;4.656;2023-07-20T14:13:06;4.72;;;1.40;;
69305;SDS011;56427;51.580;4.656;2023-07-20T14:15:31;8.13;;;1.40;;
69305;SDS011;56427;51.580;4.656;2023-07-20T14:18:00;4.35;;;1.25;;
69305;SDS011;56427;51.580;4.656;2023-07-20T14:20:25;4.43;;;1.10;;
69305;SDS011;56427;51.580;4.656;2023-07-20T14:22:50;3.15;;;1.30;;
69305;SDS011;56427;51.580;4.656;2023-07-20T14:25:16;3.67;;;1.10;;
69305;SDS011;56427;51.580;4.656;2023-07-20T14:27:41;4.17;;;1.00;;
69305;SDS011;56427;51.580;4.656;2023-07-20T14:30:07;4.67;;;1.27;;
69305;SDS011;56427;51.580;4.656;2023-07-20T14:32:34;3.88;;;1.27;;
69305;SDS011;56427;51.580;4.656;2023-07-20T14:34:59;3.00;;;1.23;;
69305;SDS011;56427;51.580;4.656;2023-07-20T14:37:25;6.53;;;1.40;;
69305;SDS011;56427;51.580;4.656;2023-07-20T14:39:50;3.97;;;1.53;;
69305;SDS011;56427;51.580;4.656;2023-07-20T14:42:15;3.23;;;1.13;;
69305;SDS011;56427;51.580;4.656;2023-07-20T14:44:41;3.20;;;1.30;;
69305;SDS011;56427;51.580;4.656;2023-07-20T14:47:06;4.67;;;1.87;;
69305;SDS011;56427;51.580;4.656;2023-07-20T14:49:31;3.33;;;1.50;;
69305;SDS011;56427;51.580;4.656;2023-07-20T14:51:57;4.33;;;1.37;;
69305;SDS011;56427;51.580;4.656;2023-07-20T14:54:22;3.63;;;1.30;;
69305;SDS011;56427;51.580;4.656;2023-07-20T14:56:51;3.93;;;1.60;;
69305;SDS011;56427;51.580;4.656;2023-07-20T14:59:20;3.15;;;1.25;;
69305;SDS011;56427;51.580;4.656;2023-07-20T15:01:51;3.15;;;1.50;;
69305;SDS011;56427;51.580;4.656;2023-07-20T15:04:18;3.45;;;1.40;;
69305;SDS011;56427;51.580;4.656;2023-07-20T15:06:43;3.47;;;1.30;;